sensor_id;sensor_type;location;lat;lon;timestamp;pressure;altitude;pressure_sealevel;temperature;humidity
61908;BME280;47864;52.526;19.672;2023-03-01T00:01:36;102322.97;;;-2.31;100.00
61908;BME280;47864;52.526;19.672;2023-03-01T00:03:38;102326.34;;;-2.25;100.00
61908;BME280;47864;52.526;19.672;2023-03-01T00:05:46;102328.13;;;-2.29;100.00
61908;BME280;47864;52.526;19.672;2023-03-01T00:07:52;102316.22;;;-2.39;100.00
61908;BME280;47864;52.526;19.672;2023-03-01T00:09:54;102333.53;;;-2.40;100.00
61908;BME280;47864;52.526;19.672;2023-03-01T00:11:55;102338.00;;;-2.48;100.00
61908;BME280;47864;52.526;19.672;2023-03-01T00:13:59;102326.59;;;-2.39;100.00
61908;BME280;47864;52.526;19.672;2023-03-01T00:16:03;102320.47;;;-2.35;100.00
61908;BME280;47864;52.526;19.672;2023-03-01T00:18:04;102317.97;;;-2.41;100.00
61908;BME280;47864;52.526;19.672;2023-03-01T00:20:07;102335.22;;;-2.39;100.00
61908;BME280;47864;52.526;19.672;2023-03-01T00:22:08;102339.66;;;-2.44;100.00
61908;BME280;47864;52.526;19.672;2023-03-01T00:24:10;102337.91;;;-2.42;100.00
61908;BME280;47864;52.526;19.672;2023-03-01T00:26:13;102311.31;;;-2.56;100.00
61908;BME280;47864;52.526;19.672;2023-03-01T00:28:15;102331.13;;;-2.50;100.00
61908;BME280;47864;52.526;19.672;2023-03-01T00:30:17;102335.44;;;-2.49;100.00
61908;BME280;47864;52.526;19.672;2023-03-01T00:32:18;102324.31;;;-2.59;100.00
61908;BME280;47864;52.526;19.672;2023-03-01T00:34:20;102329.66;;;-2.66;100.00
61908;BME280;47864;52.526;19.672;2023-03-01T00:36:21;102304.47;;;-2.63;100.00
61908;BME280;47864;52.526;19.672;2023-03-01T00:38:23;102301.72;;;-2.54;100.00
61908;BME280;47864;52.526;19.672;2023-03-01T00:40:26;102306.84;;;-2.49;100.00
61908;BME280;47864;52.526;19.672;2023-03-01T00:42:27;102283.00;;;-2.73;100.00
61908;BME280;47864;52.526;19.672;2023-03-01T00:44:29;102274.50;;;-2.82;100.00
61908;BME280;47864;52.526;19.672;2023-03-01T00:46:31;102296.88;;;-2.75;100.00
61908;BME280;47864;52.526;19.672;2023-03-01T00:48:34;102302.94;;;-2.75;100.00
61908;BME280;47864;52.526;19.672;2023-03-01T00:50:36;102281.53;;;-2.89;100.00
61908;BME280;47864;52.526;19.672;2023-03-01T00:52:37;102304.69;;;-2.75;100.00
61908;BME280;47864;52.526;19.672;2023-03-01T00:54:39;102285.00;;;-2.88;100.00
61908;BME280;47864;52.526;19.672;2023-03-01T00:56:41;102308.00;;;-2.65;100.00
61908;BME280;47864;52.526;19.672;2023-03-01T00:58:42;102298.31;;;-2.56;100.00
61908;BME280;47864;52.526;19.672;2023-03-01T01:00:44;102298.22;;;-2.51;100.00
61908;BME280;47864;52.526;19.672;2023-03-01T01:02:45;102279.28;;;-2.58;100.00
61908;BME280;47864;52.526;19.672;2023-03-01T01:04:47;102222.78;;;-2.94;100.00
61908;BME280;47864;52.526;19.672;2023-03-01T01:06:49;102294.72;;;-2.49;100.00
61908;BME280;47864;52.526;19.672;2023-03-01T01:08:51;102288.66;;;-2.48;100.00
61908;BME280;47864;52.526;19.672;2023-03-01T01:10:53;102288.09;;;-2.66;100.00
61908;BME280;47864;52.526;19.672;2023-03-01T01:12:54;102264.91;;;-2.79;100.00
61908;BME280;47864;52.526;19.672;2023-03-01T01:14:56;102271.63;;;-2.64;100.00
61908;BME280;47864;52.526;19.672;2023-03-01T01:16:58;102274.06;;;-2.56;100.00
61908;BME280;47864;52.526;19.672;2023-03-01T01:18:59;102270.63;;;-2.57;100.00
61908;BME280;47864;52.526;19.672;2023-03-01T01:21:09;102249.28;;;-2.76;100.00
61908;BME280;47864;52.526;19.672;2023-03-01T01:23:11;102268.91;;;-2.58;100.00
61908;BME280;47864;52.526;19.672;2023-03-01T01:25:13;102227.81;;;-2.85;100.00
61908;BME280;47864;52.526;19.672;2023-03-01T01:27:15;102261.03;;;-2.55;100.00
61908;BME280;47864;52.526;19.672;2023-03-01T01:29:16;102258.44;;;-2.55;100.00
61908;BME280;47864;52.526;19.672;2023-03-01T01:31:18;102255.06;;;-2.58;100.00
61908;BME280;47864;52.526;19.672;2023-03-01T01:33:20;102232.66;;;-2.64;100.00
61908;BME280;47864;52.526;19.672;2023-03-01T01:35:22;102261.66;;;-2.39;100.00
61908;BME280;47864;52.526;19.672;2023-03-01T01:37:23;102234.16;;;-2.52;100.00
61908;BME280;47864;52.526;19.672;2023-03-01T01:39:25;102241.03;;;-2.48;100.00
61908;BME280;47864;52.526;19.672;2023-03-01T01:41:28;102232.38;;;-2.49;100.00
61908;BME280;47864;52.526;19.672;2023-03-01T01:43:34;102247.75;;;-2.38;100.00
61908;BME280;47864;52.526;19.672;2023-03-01T01:45:36;102232.34;;;-2.47;100.00
61908;BME280;47864;52.526;19.672;2023-03-01T01:47:37;102223.78;;;-2.52;100.00
61908;BME280;47864;52.526;19.672;2023-03-01T01:49:54;102248.84;;;-2.50;100.00
61908;BME280;47864;52.526;19.672;2023-03-01T01:52:22;102234.34;;;-2.63;100.00
61908;BME280;47864;52.526;19.672;2023-03-01T01:57:03;102202.44;;;-2.70;100.00
61908;BME280;47864;52.526;19.672;2023-03-01T01:59:08;102222.16;;;-2.58;100.00
61908;BME280;47864;52.526;19.672;2023-03-01T02:01:11;102224.88;;;-2.65;100.00
61908;BME280;47864;52.526;19.672;2023-03-01T02:03:17;102229.22;;;-2.66;100.00
61908;BME280;47864;52.526;19.672;2023-03-01T02:05:34;102221.31;;;-2.60;100.00
61908;BME280;47864;52.526;19.672;2023-03-01T02:07:39;102221.28;;;-2.58;100.00
61908;BME280;47864;52.526;19.672;2023-03-01T02:09:46;102225.50;;;-2.53;100.00
61908;BME280;47864;52.526;19.672;2023-03-01T02:11:50;102220.56;;;-2.66;100.00
61908;BME280;47864;52.526;19.672;2023-03-01T02:13:53;102215.41;;;-2.70;100.00
61908;BME280;47864;52.526;19.672;2023-03-01T02:15:55;102233.38;;;-2.56;100.00
61908;BME280;47864;52.526;19.672;2023-03-01T02:17:57;102224.66;;;-2.55;100.00
61908;BME280;47864;52.526;19.672;2023-03-01T02:22:28;102227.28;;;-2.55;100.00
61908;BME280;47864;52.526;19.672;2023-03-01T02:26:56;102207.44;;;-2.59;100.00
61908;BME280;47864;52.526;19.672;2023-03-01T02:28:58;102231.50;;;-2.49;100.00
61908;BME280;47864;52.526;19.672;2023-03-01T02:31:00;102225.50;;;-2.53;100.00
61908;BME280;47864;52.526;19.672;2023-03-01T02:33:03;102232.38;;;-2.49;100.00
61908;BME280;47864;52.526;19.672;2023-03-01T02:35:06;102231.59;;;-2.54;100.00
61908;BME280;47864;52.526;19.672;2023-03-01T02:37:14;102235.03;;;-2.53;100.00
61908;BME280;47864;52.526;19.672;2023-03-01T02:39:20;102228.06;;;-2.50;100.00
61908;BME280;47864;52.526;19.672;2023-03-01T02:41:24;102210.03;;;-2.59;100.00
61908;BME280;47864;52.526;19.672;2023-03-01T02:43:30;102221.88;;;-2.43;100.00
61908;BME280;47864;52.526;19.672;2023-03-01T02:45:32;102217.41;;;-2.38;100.00
61908;BME280;47864;52.526;19.672;2023-03-01T02:47:34;102178.06;;;-2.62;100.00
61908;BME280;47864;52.526;19.672;2023-03-01T02:49:37;102217.59;;;-2.47;100.00
61908;BME280;47864;52.526;19.672;2023-03-01T02:54:25;102205.72;;;-2.58;100.00
61908;BME280;47864;52.526;19.672;2023-03-01T02:56:30;102216.09;;;-2.58;100.00
61908;BME280;47864;52.526;19.672;2023-03-01T02:58:31;102215.22;;;-2.57;100.00
61908;BME280;47864;52.526;19.672;2023-03-01T03:00:39;102214.38;;;-2.59;100.00
61908;BME280;47864;52.526;19.672;2023-03-01T03:02:42;102201.53;;;-2.67;100.00
61908;BME280;47864;52.526;19.672;2023-03-01T03:04:43;102213.50;;;-2.58;100.00
61908;BME280;47864;52.526;19.672;2023-03-01T03:06:45;102211.69;;;-2.55;100.00
61908;BME280;47864;52.526;19.672;2023-03-01T03:08:47;102207.59;;;-2.66;100.00
61908;BME280;47864;52.526;19.672;2023-03-01T03:10:49;102211.16;;;-2.72;100.00
61908;BME280;47864;52.526;19.672;2023-03-01T03:12:55;102199.94;;;-2.74;100.00
61908;BME280;47864;52.526;19.672;2023-03-01T03:14:57;102193.13;;;-2.81;100.00
61908;BME280;47864;52.526;19.672;2023-03-01T03:16:59;102207.84;;;-2.80;100.00
61908;BME280;47864;52.526;19.672;2023-03-01T03:19:00;102202.72;;;-2.85;100.00
61908;BME280;47864;52.526;19.672;2023-03-01T03:21:02;102215.56;;;-2.77;100.00
61908;BME280;47864;52.526;19.672;2023-03-01T03:23:04;102193.22;;;-2.87;100.00
61908;BME280;47864;52.526;19.672;2023-03-01T03:25:06;102214.66;;;-2.75;100.00
61908;BME280;47864;52.526;19.672;2023-03-01T03:27:08;102191.59;;;-2.93;100.00
61908;BME280;47864;52.526;19.672;2023-03-01T03:29:09;102206.28;;;-2.92;100.00
61908;BME280;47864;52.526;19.672;2023-03-01T03:31:11;102176.97;;;-2.97;100.00
61908;BME280;47864;52.526;19.672;2023-03-01T03:33:13;102194.16;;;-2.91;100.00
61908;BME280;47864;52.526;19.672;2023-03-01T03:35:14;102195.91;;;-2.92;100.00
61908;BME280;47864;52.526;19.672;2023-03-01T03:37:16;102162.44;;;-3.09;100.00
61908;BME280;47864;52.526;19.672;2023-03-01T03:39:17;102182.06;;;-2.91;100.00
61908;BME280;47864;52.526;19.672;2023-03-01T03:41:20;102176.13;;;-2.97;100.00
61908;BME280;47864;52.526;19.672;2023-03-01T03:43:23;102175.41;;;-3.07;100.00
61908;BME280;47864;52.526;19.672;2023-03-01T03:45:24;102160.13;;;-3.24;100.00
61908;BME280;47864;52.526;19.672;2023-03-01T03:47:26;102167.84;;;-3.21;100.00
61908;BME280;47864;52.526;19.672;2023-03-01T03:49:27;102178.78;;;-3.02;100.00
61908;BME280;47864;52.526;19.672;2023-03-01T03:51:29;102164.06;;;-3.01;100.00
61908;BME280;47864;52.526;19.672;2023-03-01T03:53:30;102133.28;;;-3.23;100.00
61908;BME280;47864;52.526;19.672;2023-03-01T03:55:33;102158.66;;;-2.89;100.00
61908;BME280;47864;52.526;19.672;2023-03-01T03:57:36;102144.16;;;-3.02;100.00
61908;BME280;47864;52.526;19.672;2023-03-01T03:59:37;102139.19;;;-3.13;100.00
61908;BME280;47864;52.526;19.672;2023-03-01T04:01:39;102155.44;;;-3.03;100.00
61908;BME280;47864;52.526;19.672;2023-03-01T04:03:40;102141.81;;;-3.15;100.00
61908;BME280;47864;52.526;19.672;2023-03-01T04:05:42;102163.31;;;-3.08;100.00
61908;BME280;47864;52.526;19.672;2023-03-01T04:07:44;102165.69;;;-2.96;100.00
61908;BME280;47864;52.526;19.672;2023-03-01T04:09:46;102161.31;;;-2.94;100.00
61908;BME280;47864;52.526;19.672;2023-03-01T04:11:47;102165.50;;;-2.85;100.00
61908;BME280;47864;52.526;19.672;2023-03-01T04:13:50;102166.47;;;-2.91;100.00
61908;BME280;47864;52.526;19.672;2023-03-01T04:15:52;102173.38;;;-2.88;100.00
61908;BME280;47864;52.526;19.672;2023-03-01T04:17:54;102183.66;;;-2.84;100.00
61908;BME280;47864;52.526;19.672;2023-03-01T04:19:56;102184.38;;;-2.76;100.00
61908;BME280;47864;52.526;19.672;2023-03-01T04:21:58;102177.41;;;-2.74;100.00
61908;BME280;47864;52.526;19.672;2023-03-01T04:23:59;102181.72;;;-2.73;100.00
61908;BME280;47864;52.526;19.672;2023-03-01T04:26:01;102192.31;;;-2.83;100.00
61908;BME280;47864;52.526;19.672;2023-03-01T04:28:02;102198.34;;;-2.83;100.00
61908;BME280;47864;52.526;19.672;2023-03-01T04:30:04;102181.16;;;-2.88;100.00
61908;BME280;47864;52.526;19.672;2023-03-01T04:32:06;102192.13;;;-2.74;100.00
61908;BME280;47864;52.526;19.672;2023-03-01T04:34:08;102191.03;;;-2.62;100.00
61908;BME280;47864;52.526;19.672;2023-03-01T04:36:10;102178.91;;;-2.62;100.00
61908;BME280;47864;52.526;19.672;2023-03-01T04:38:12;102171.28;;;-2.70;100.00
61908;BME280;47864;52.526;19.672;2023-03-01T04:40:13;102170.56;;;-2.79;100.00
61908;BME280;47864;52.526;19.672;2023-03-01T04:42:15;102139.41;;;-2.78;100.00
61908;BME280;47864;52.526;19.672;2023-03-01T04:44:17;102154.47;;;-2.50;100.00
61908;BME280;47864;52.526;19.672;2023-03-01T04:46:20;102158.69;;;-2.46;100.00
61908;BME280;47864;52.526;19.672;2023-03-01T04:48:22;102153.94;;;-2.67;100.00
61908;BME280;47864;52.526;19.672;2023-03-01T04:50:24;102153.06;;;-2.68;100.00
61908;BME280;47864;52.526;19.672;2023-03-01T04:52:25;102123.22;;;-2.92;100.00
61908;BME280;47864;52.526;19.672;2023-03-01T04:54:27;102137.84;;;-2.88;100.00
61908;BME280;47864;52.526;19.672;2023-03-01T04:56:29;102119.78;;;-2.94;100.00
61908;BME280;47864;52.526;19.672;2023-03-01T04:58:31;102133.44;;;-2.83;100.00
61908;BME280;47864;52.526;19.672;2023-03-01T05:00:33;102140.38;;;-2.83;100.00
61908;BME280;47864;52.526;19.672;2023-03-01T05:02:34;102136.25;;;-2.95;100.00
61908;BME280;47864;52.526;19.672;2023-03-01T05:04:36;102137.06;;;-2.91;100.00
61908;BME280;47864;52.526;19.672;2023-03-01T05:06:37;102136.75;;;-2.75;100.00
61908;BME280;47864;52.526;19.672;2023-03-01T05:08:40;102134.66;;;-2.56;100.00
61908;BME280;47864;52.526;19.672;2023-03-01T05:10:43;102119.28;;;-2.66;100.00
61908;BME280;47864;52.526;19.672;2023-03-01T05:12:45;102132.66;;;-2.43;100.00
61908;BME280;47864;52.526;19.672;2023-03-01T05:14:47;102100.94;;;-2.57;100.00
61908;BME280;47864;52.526;19.672;2023-03-01T05:16:48;102117.44;;;-2.61;100.00
61908;BME280;47864;52.526;19.672;2023-03-01T05:18:50;102120.00;;;-2.58;100.00
61908;BME280;47864;52.526;19.672;2023-03-01T05:20:52;102098.53;;;-2.68;100.00
61908;BME280;47864;52.526;19.672;2023-03-01T05:22:58;102134.59;;;-2.53;100.00
61908;BME280;47864;52.526;19.672;2023-03-01T05:25:01;102127.19;;;-2.73;100.00
61908;BME280;47864;52.526;19.672;2023-03-01T05:27:03;102135.56;;;-2.58;100.00
61908;BME280;47864;52.526;19.672;2023-03-01T05:29:04;102134.91;;;-2.70;100.00
61908;BME280;47864;52.526;19.672;2023-03-01T05:31:06;102140.59;;;-2.49;100.00
61908;BME280;47864;52.526;19.672;2023-03-01T05:33:09;102111.09;;;-2.47;100.00
61908;BME280;47864;52.526;19.672;2023-03-01T05:35:12;102143.03;;;-2.42;100.00
61908;BME280;47864;52.526;19.672;2023-03-01T05:37:14;102141.47;;;-2.50;100.00
61908;BME280;47864;52.526;19.672;2023-03-01T05:39:15;102143.22;;;-2.51;100.00
61908;BME280;47864;52.526;19.672;2023-03-01T05:41:17;102142.25;;;-2.47;100.00
61908;BME280;47864;52.526;19.672;2023-03-01T05:43:18;102146.50;;;-2.41;100.00
61908;BME280;47864;52.526;19.672;2023-03-01T05:45:21;102150.09;;;-2.48;100.00
61908;BME280;47864;52.526;19.672;2023-03-01T05:47:22;102147.06;;;-2.27;100.00
61908;BME280;47864;52.526;19.672;2023-03-01T05:49:24;102123.09;;;-2.40;100.00
61908;BME280;47864;52.526;19.672;2023-03-01T05:51:26;102138.94;;;-2.12;100.00
61908;BME280;47864;52.526;19.672;2023-03-01T05:53:27;102124.22;;;-2.13;100.00
61908;BME280;47864;52.526;19.672;2023-03-01T05:55:29;102145.84;;;-2.11;100.00
61908;BME280;47864;52.526;19.672;2023-03-01T05:57:31;102126.09;;;-2.18;100.00
61908;BME280;47864;52.526;19.672;2023-03-01T05:59:33;102154.28;;;-2.00;100.00
61908;BME280;47864;52.526;19.672;2023-03-01T06:01:35;102151.34;;;-1.84;100.00
61908;BME280;47864;52.526;19.672;2023-03-01T06:03:37;102150.38;;;-1.80;100.00
61908;BME280;47864;52.526;19.672;2023-03-01T06:05:39;102152.78;;;-1.71;100.00
61908;BME280;47864;52.526;19.672;2023-03-01T06:07:41;102152.41;;;-1.56;100.00
61908;BME280;47864;52.526;19.672;2023-03-01T06:09:43;102149.59;;;-1.47;100.00
61908;BME280;47864;52.526;19.672;2023-03-01T06:11:44;102135.97;;;-1.21;100.00
61908;BME280;47864;52.526;19.672;2023-03-01T06:13:46;102143.44;;;-1.07;100.00
61908;BME280;47864;52.526;19.672;2023-03-01T06:15:48;102151.00;;;-0.98;100.00
61908;BME280;47864;52.526;19.672;2023-03-01T06:17:50;102153.81;;;-0.73;100.00
61908;BME280;47864;52.526;19.672;2023-03-01T06:19:51;102153.75;;;-0.70;100.00
61908;BME280;47864;52.526;19.672;2023-03-01T06:21:53;102142.22;;;-0.62;100.00
61908;BME280;47864;52.526;19.672;2023-03-01T06:23:54;102158.47;;;-0.52;100.00
61908;BME280;47864;52.526;19.672;2023-03-01T06:25:55;102157.00;;;-0.62;100.00
61908;BME280;47864;52.526;19.672;2023-03-01T06:27:57;102154.88;;;-0.48;100.00
61908;BME280;47864;52.526;19.672;2023-03-01T06:29:58;102165.56;;;-0.26;100.00
61908;BME280;47864;52.526;19.672;2023-03-01T06:32:00;102143.75;;;-0.24;100.00
61908;BME280;47864;52.526;19.672;2023-03-01T06:34:02;102165.22;;;-0.14;100.00
61908;BME280;47864;52.526;19.672;2023-03-01T06:36:03;102167.75;;;-0.11;100.00
61908;BME280;47864;52.526;19.672;2023-03-01T06:38:05;102158.84;;;-0.04;100.00
61908;BME280;47864;52.526;19.672;2023-03-01T06:40:07;102135.97;;;0.04;100.00
61908;BME280;47864;52.526;19.672;2023-03-01T06:42:09;102162.06;;;0.04;100.00
61908;BME280;47864;52.526;19.672;2023-03-01T06:44:11;102171.06;;;0.23;100.00
61908;BME280;47864;52.526;19.672;2023-03-01T06:46:12;102165.38;;;0.38;100.00
61908;BME280;47864;52.526;19.672;2023-03-01T06:48:14;102164.50;;;0.66;100.00
61908;BME280;47864;52.526;19.672;2023-03-01T06:50:17;102159.91;;;0.74;100.00
61908;BME280;47864;52.526;19.672;2023-03-01T06:52:19;102166.63;;;0.53;100.00
61908;BME280;47864;52.526;19.672;2023-03-01T06:54:20;102162.13;;;0.58;100.00
61908;BME280;47864;52.526;19.672;2023-03-01T06:56:22;102158.34;;;0.67;100.00
61908;BME280;47864;52.526;19.672;2023-03-01T06:58:23;102164.09;;;0.78;100.00
61908;BME280;47864;52.526;19.672;2023-03-01T07:00:26;102157.66;;;1.14;100.00
61908;BME280;47864;52.526;19.672;2023-03-01T07:02:28;102160.41;;;1.35;100.00
61908;BME280;47864;52.526;19.672;2023-03-01T07:04:29;102144.78;;;1.08;100.00
61908;BME280;47864;52.526;19.672;2023-03-01T07:06:31;102157.13;;;1.78;100.00
61908;BME280;47864;52.526;19.672;2023-03-01T07:08:33;102163.47;;;2.39;100.00
61908;BME280;47864;52.526;19.672;2023-03-01T07:10:34;102165.56;;;2.31;98.58
61908;BME280;47864;52.526;19.672;2023-03-01T07:12:36;102146.88;;;2.40;96.99
61908;BME280;47864;52.526;19.672;2023-03-01T07:14:37;102161.84;;;2.37;95.68
61908;BME280;47864;52.526;19.672;2023-03-01T07:16:39;102168.91;;;2.78;94.10
61908;BME280;47864;52.526;19.672;2023-03-01T07:18:41;102160.44;;;2.28;97.22
61908;BME280;47864;52.526;19.672;2023-03-01T07:20:42;102169.00;;;2.55;94.20
61908;BME280;47864;52.526;19.672;2023-03-01T07:22:44;102142.16;;;2.48;94.30
61908;BME280;47864;52.526;19.672;2023-03-01T07:24:46;102151.69;;;2.51;91.91
61908;BME280;47864;52.526;19.672;2023-03-01T07:26:51;102155.91;;;2.10;95.13
61908;BME280;47864;52.526;19.672;2023-03-01T07:28:53;102155.63;;;2.17;95.80
61908;BME280;47864;52.526;19.672;2023-03-01T07:30:54;102135.38;;;2.44;94.68
61908;BME280;47864;52.526;19.672;2023-03-01T07:32:57;102146.97;;;2.81;95.33
61908;BME280;47864;52.526;19.672;2023-03-01T07:34:59;102140.69;;;2.85;93.56
61908;BME280;47864;52.526;19.672;2023-03-01T07:37:00;102138.59;;;2.93;94.02
61908;BME280;47864;52.526;19.672;2023-03-01T07:39:02;102152.22;;;2.59;93.01
61908;BME280;47864;52.526;19.672;2023-03-01T07:41:03;102144.38;;;3.21;92.39
61908;BME280;47864;52.526;19.672;2023-03-01T07:43:05;102134.84;;;2.78;92.97
61908;BME280;47864;52.526;19.672;2023-03-01T07:45:07;102127.88;;;3.19;92.41
61908;BME280;47864;52.526;19.672;2023-03-01T07:47:08;102116.66;;;3.16;92.38
61908;BME280;47864;52.526;19.672;2023-03-01T07:49:10;102138.47;;;3.36;90.97
61908;BME280;47864;52.526;19.672;2023-03-01T07:51:11;102134.75;;;3.01;89.95
61908;BME280;47864;52.526;19.672;2023-03-01T07:53:14;102115.06;;;2.71;91.70
61908;BME280;47864;52.526;19.672;2023-03-01T07:55:16;102129.50;;;2.59;95.80
61908;BME280;47864;52.526;19.672;2023-03-01T07:57:17;102131.59;;;2.51;97.53
61908;BME280;47864;52.526;19.672;2023-03-01T07:59:19;102128.59;;;2.60;95.96
61908;BME280;47864;52.526;19.672;2023-03-01T08:01:21;102132.50;;;2.92;94.44
61908;BME280;47864;52.526;19.672;2023-03-01T08:03:22;102131.22;;;3.02;92.39
61908;BME280;47864;52.526;19.672;2023-03-01T08:05:24;102133.78;;;3.04;90.70
61908;BME280;47864;52.526;19.672;2023-03-01T08:07:26;102133.53;;;2.88;92.53
61908;BME280;47864;52.526;19.672;2023-03-01T08:09:27;102123.47;;;2.99;95.28
61908;BME280;47864;52.526;19.672;2023-03-01T08:11:29;102107.59;;;3.23;90.55
61908;BME280;47864;52.526;19.672;2023-03-01T08:13:30;102106.63;;;2.85;90.44
61908;BME280;47864;52.526;19.672;2023-03-01T08:15:32;102101.97;;;2.91;91.55
61908;BME280;47864;52.526;19.672;2023-03-01T08:17:34;102123.81;;;3.12;90.40
61908;BME280;47864;52.526;19.672;2023-03-01T08:19:35;102099.41;;;2.90;91.55
61908;BME280;47864;52.526;19.672;2023-03-01T08:21:37;102117.38;;;3.19;91.89
61908;BME280;47864;52.526;19.672;2023-03-01T08:23:39;102121.56;;;3.43;91.68
61908;BME280;47864;52.526;19.672;2023-03-01T08:25:41;102114.00;;;3.75;90.13
61908;BME280;47864;52.526;19.672;2023-03-01T08:27:42;102115.63;;;3.96;87.37
61908;BME280;47864;52.526;19.672;2023-03-01T08:29:44;102088.69;;;4.11;86.52
61908;BME280;47864;52.526;19.672;2023-03-01T08:31:47;102113.13;;;4.31;86.77
61908;BME280;47864;52.526;19.672;2023-03-01T08:33:51;102113.78;;;3.98;85.97
61908;BME280;47864;52.526;19.672;2023-03-01T08:36:05;102113.38;;;4.07;88.06
61908;BME280;47864;52.526;19.672;2023-03-01T08:38:06;102109.31;;;4.00;88.43
61908;BME280;47864;52.526;19.672;2023-03-01T08:40:08;102099.31;;;4.27;86.62
61908;BME280;47864;52.526;19.672;2023-03-01T08:42:10;102106.38;;;4.44;86.24
61908;BME280;47864;52.526;19.672;2023-03-01T08:44:13;102111.94;;;4.55;86.31
61908;BME280;47864;52.526;19.672;2023-03-01T08:46:15;102099.66;;;4.55;86.68
61908;BME280;47864;52.526;19.672;2023-03-01T08:48:17;102102.34;;;4.71;84.65
61908;BME280;47864;52.526;19.672;2023-03-01T08:50:18;102103.75;;;4.78;86.27
61908;BME280;47864;52.526;19.672;2023-03-01T08:52:20;102111.88;;;5.25;83.74
61908;BME280;47864;52.526;19.672;2023-03-01T08:54:22;102117.94;;;5.10;82.83
61908;BME280;47864;52.526;19.672;2023-03-01T08:56:23;102117.44;;;5.19;83.69
61908;BME280;47864;52.526;19.672;2023-03-01T08:58:25;102105.75;;;5.25;82.53
61908;BME280;47864;52.526;19.672;2023-03-01T09:00:26;102124.56;;;5.17;85.08
61908;BME280;47864;52.526;19.672;2023-03-01T09:02:28;102113.31;;;5.31;83.94
61908;BME280;47864;52.526;19.672;2023-03-01T09:04:29;102106.03;;;5.69;83.88
61908;BME280;47864;52.526;19.672;2023-03-01T09:06:32;102100.44;;;4.92;86.87
61908;BME280;47864;52.526;19.672;2023-03-01T09:08:35;102103.47;;;5.02;85.02
61908;BME280;47864;52.526;19.672;2023-03-01T09:10:38;102121.16;;;4.98;87.01
61908;BME280;47864;52.526;19.672;2023-03-01T09:12:40;102089.47;;;5.01;87.57
61908;BME280;47864;52.526;19.672;2023-03-01T09:14:42;102120.81;;;5.39;86.10
61908;BME280;47864;52.526;19.672;2023-03-01T09:16:43;102119.84;;;5.07;86.92
61908;BME280;47864;52.526;19.672;2023-03-01T09:18:50;102122.56;;;5.05;85.93
61908;BME280;47864;52.526;19.672;2023-03-01T09:20:51;102118.78;;;4.93;84.89
61908;BME280;47864;52.526;19.672;2023-03-01T09:22:53;102119.38;;;4.98;85.78
61908;BME280;47864;52.526;19.672;2023-03-01T09:24:56;102119.88;;;4.53;88.04
61908;BME280;47864;52.526;19.672;2023-03-01T09:26:57;102128.06;;;5.01;85.93
61908;BME280;47864;52.526;19.672;2023-03-01T09:28:58;102121.25;;;4.96;85.63
61908;BME280;47864;52.526;19.672;2023-03-01T09:31:01;102115.50;;;4.88;86.14
61908;BME280;47864;52.526;19.672;2023-03-01T09:33:03;102117.44;;;4.68;87.85
61908;BME280;47864;52.526;19.672;2023-03-01T09:35:05;102114.66;;;4.71;88.15
61908;BME280;47864;52.526;19.672;2023-03-01T09:37:06;102097.28;;;4.68;87.73
61908;BME280;47864;52.526;19.672;2023-03-01T09:39:08;102114.28;;;4.95;86.44
61908;BME280;47864;52.526;19.672;2023-03-01T09:41:26;102106.84;;;5.54;85.24
61908;BME280;47864;52.526;19.672;2023-03-01T09:43:44;102099.84;;;5.86;82.29
61908;BME280;47864;52.526;19.672;2023-03-01T09:45:49;102073.84;;;5.64;83.83
61908;BME280;47864;52.526;19.672;2023-03-01T09:47:54;102099.72;;;5.89;85.12
61908;BME280;47864;52.526;19.672;2023-03-01T09:50:11;102090.88;;;6.21;83.08
61908;BME280;47864;52.526;19.672;2023-03-01T09:52:23;102086.63;;;6.03;82.67
61908;BME280;47864;52.526;19.672;2023-03-01T09:54:27;102087.94;;;5.79;86.92
61908;BME280;47864;52.526;19.672;2023-03-01T09:56:44;102090.25;;;5.36;90.75
61908;BME280;47864;52.526;19.672;2023-03-01T10:06:37;102078.78;;;5.86;91.47
61908;BME280;47864;52.526;19.672;2023-03-01T10:09:05;102079.56;;;6.19;89.53
61908;BME280;47864;52.526;19.672;2023-03-01T10:11:21;102069.94;;;6.49;88.66
61908;BME280;47864;52.526;19.672;2023-03-01T10:13:50;102062.69;;;6.83;84.98
61908;BME280;47864;52.526;19.672;2023-03-01T10:16:01;102073.34;;;6.96;84.24
61908;BME280;47864;52.526;19.672;2023-03-01T10:18:16;102071.47;;;6.83;85.63
61908;BME280;47864;52.526;19.672;2023-03-01T10:20:25;102074.88;;;6.70;86.63
61908;BME280;47864;52.526;19.672;2023-03-01T10:22:28;102070.69;;;6.52;86.60
61908;BME280;47864;52.526;19.672;2023-03-01T10:24:31;102059.59;;;6.31;89.34
61908;BME280;47864;52.526;19.672;2023-03-01T10:30:44;102063.84;;;6.02;91.71
61908;BME280;47864;52.526;19.672;2023-03-01T10:32:46;102051.97;;;6.10;91.08
61908;BME280;47864;52.526;19.672;2023-03-01T10:34:49;102050.09;;;5.97;92.23
61908;BME280;47864;52.526;19.672;2023-03-01T10:36:53;102054.00;;;6.21;91.63
61908;BME280;47864;52.526;19.672;2023-03-01T10:38:57;102050.47;;;6.36;91.77
61908;BME280;47864;52.526;19.672;2023-03-01T10:41:06;102035.81;;;6.76;88.91
61908;BME280;47864;52.526;19.672;2023-03-01T10:43:11;102038.28;;;6.94;87.46
61908;BME280;47864;52.526;19.672;2023-03-01T10:45:30;102036.59;;;6.93;87.91
61908;BME280;47864;52.526;19.672;2023-03-01T10:47:32;101995.97;;;6.37;89.92
61908;BME280;47864;52.526;19.672;2023-03-01T10:49:35;102021.81;;;7.18;87.32
61908;BME280;47864;52.526;19.672;2023-03-01T10:51:38;102013.28;;;7.70;84.42
61908;BME280;47864;52.526;19.672;2023-03-01T10:53:42;102003.72;;;7.55;82.33
61908;BME280;47864;52.526;19.672;2023-03-01T10:55:44;102007.59;;;7.49;83.52